sensor_id;sensor_type;location;lat;lon;timestamp;temperature;humidity
65582;DHT22;52231;40.090;18.348;2023-03-02T00:07:03;9.40;86.00
65582;DHT22;52231;40.090;18.348;2023-03-02T00:09:33;9.40;86.00
65582;DHT22;52231;40.090;18.348;2023-03-02T00:12:02;9.40;85.90
65582;DHT22;52231;40.090;18.348;2023-03-02T00:14:31;9.50;85.90
65582;DHT22;52231;40.090;18.348;2023-03-02T00:16:59;9.50;85.70
65582;DHT22;52231;40.090;18.348;2023-03-02T00:19:29;9.50;85.50
65582;DHT22;52231;40.090;18.348;2023-03-02T00:21:57;9.60;85.50
65582;DHT22;52231;40.090;18.348;2023-03-02T00:24:26;9.60;85.40
65582;DHT22;52231;40.090;18.348;2023-03-02T00:26:54;9.60;85.40
65582;DHT22;52231;40.090;18.348;2023-03-02T00:29:22;9.50;85.50
65582;DHT22;52231;40.090;18.348;2023-03-02T00:31:50;9.50;85.50
65582;DHT22;52231;40.090;18.348;2023-03-02T00:34:18;9.50;85.50
65582;DHT22;52231;40.090;18.348;2023-03-02T00:36:47;9.50;85.60
65582;DHT22;52231;40.090;18.348;2023-03-02T00:39:16;9.40;85.70
65582;DHT22;52231;40.090;18.348;2023-03-02T00:41:47;9.40;85.80
65582;DHT22;52231;40.090;18.348;2023-03-02T00:44:15;9.50;85.90
65582;DHT22;52231;40.090;18.348;2023-03-02T00:46:46;9.50;85.90
65582;DHT22;52231;40.090;18.348;2023-03-02T00:49:15;9.50;85.90
65582;DHT22;52231;40.090;18.348;2023-03-02T00:51:43;9.50;85.90
65582;DHT22;52231;40.090;18.348;2023-03-02T00:54:11;9.50;85.90
65582;DHT22;52231;40.090;18.348;2023-03-02T00:56:39;9.50;85.90
65582;DHT22;52231;40.090;18.348;2023-03-02T00:59:10;9.50;85.90
65582;DHT22;52231;40.090;18.348;2023-03-02T01:02:20;9.50;86.00
65582;DHT22;52231;40.090;18.348;2023-03-02T01:04:49;9.30;86.00
65582;DHT22;52231;40.090;18.348;2023-03-02T01:07:20;9.30;86.20
65582;DHT22;52231;40.090;18.348;2023-03-02T01:09:48;9.30;86.30
65582;DHT22;52231;40.090;18.348;2023-03-02T01:12:17;9.30;86.50
65582;DHT22;52231;40.090;18.348;2023-03-02T01:14:47;9.20;86.60
65582;DHT22;52231;40.090;18.348;2023-03-02T01:17:18;9.20;86.70
65582;DHT22;52231;40.090;18.348;2023-03-02T01:19:48;9.10;86.70
65582;DHT22;52231;40.090;18.348;2023-03-02T01:22:18;9.10;86.80
65582;DHT22;52231;40.090;18.348;2023-03-02T01:24:46;9.10;86.90
65582;DHT22;52231;40.090;18.348;2023-03-02T01:27:15;9.10;87.00
65582;DHT22;52231;40.090;18.348;2023-03-02T01:29:43;9.10;87.10
65582;DHT22;52231;40.090;18.348;2023-03-02T01:32:11;9.10;87.20
65582;DHT22;52231;40.090;18.348;2023-03-02T01:34:39;9.10;87.20
65582;DHT22;52231;40.090;18.348;2023-03-02T01:37:08;9.10;87.30
65582;DHT22;52231;40.090;18.348;2023-03-02T01:39:36;9.10;87.20
65582;DHT22;52231;40.090;18.348;2023-03-02T01:42:04;9.10;87.30
65582;DHT22;52231;40.090;18.348;2023-03-02T01:44:42;9.10;87.40
65582;DHT22;52231;40.090;18.348;2023-03-02T01:47:21;9.10;87.30
65582;DHT22;52231;40.090;18.348;2023-03-02T01:49:59;9.10;87.40
65582;DHT22;52231;40.090;18.348;2023-03-02T01:52:33;9.10;87.40
65582;DHT22;52231;40.090;18.348;2023-03-02T01:55:09;9.10;87.50
65582;DHT22;52231;40.090;18.348;2023-03-02T01:57:41;9.10;87.50
65582;DHT22;52231;40.090;18.348;2023-03-02T02:00:16;9.10;87.60
65582;DHT22;52231;40.090;18.348;2023-03-02T02:02:46;9.20;87.70
65582;DHT22;52231;40.090;18.348;2023-03-02T02:05:20;9.20;87.70
65582;DHT22;52231;40.090;18.348;2023-03-02T02:07:50;9.20;87.70
65582;DHT22;52231;40.090;18.348;2023-03-02T02:10:18;9.10;87.70
65582;DHT22;52231;40.090;18.348;2023-03-02T02:12:47;9.10;87.70
65582;DHT22;52231;40.090;18.348;2023-03-02T02:15:15;9.10;87.80
65582;DHT22;52231;40.090;18.348;2023-03-02T02:17:45;9.10;87.80
65582;DHT22;52231;40.090;18.348;2023-03-02T02:20:32;9.10;87.80
65582;DHT22;52231;40.090;18.348;2023-03-02T02:25:54;9.10;87.80
65582;DHT22;52231;40.090;18.348;2023-03-02T02:28:39;9.00;87.90
65582;DHT22;52231;40.090;18.348;2023-03-02T02:31:26;9.00;87.90
65582;DHT22;52231;40.090;18.348;2023-03-02T02:34:01;9.00;87.90
65582;DHT22;52231;40.090;18.348;2023-03-02T02:36:34;9.00;87.90
65582;DHT22;52231;40.090;18.348;2023-03-02T02:39:16;8.90;87.90
65582;DHT22;52231;40.090;18.348;2023-03-02T02:41:48;8.80;88.00
65582;DHT22;52231;40.090;18.348;2023-03-02T02:44:17;8.80;88.10
65582;DHT22;52231;40.090;18.348;2023-03-02T02:46:46;8.80;88.10
65582;DHT22;52231;40.090;18.348;2023-03-02T02:49:36;8.70;88.20
65582;DHT22;52231;40.090;18.348;2023-03-02T02:52:06;8.70;88.20
65582;DHT22;52231;40.090;18.348;2023-03-02T02:54:37;8.60;88.20
65582;DHT22;52231;40.090;18.348;2023-03-02T02:57:08;8.60;88.30
65582;DHT22;52231;40.090;18.348;2023-03-02T02:59:44;8.50;88.30
65582;DHT22;52231;40.090;18.348;2023-03-02T03:02:24;8.50;88.30
65582;DHT22;52231;40.090;18.348;2023-03-02T03:04:53;8.50;88.40
65582;DHT22;52231;40.090;18.348;2023-03-02T03:07:32;8.40;88.40
65582;DHT22;52231;40.090;18.348;2023-03-02T03:10:07;8.40;88.60
65582;DHT22;52231;40.090;18.348;2023-03-02T03:12:39;8.40;88.70
65582;DHT22;52231;40.090;18.348;2023-03-02T03:15:08;8.40;88.70
65582;DHT22;52231;40.090;18.348;2023-03-02T03:17:36;8.50;88.70
65582;DHT22;52231;40.090;18.348;2023-03-02T03:20:05;8.40;88.70
65582;DHT22;52231;40.090;18.348;2023-03-02T03:22:40;8.30;88.80
65582;DHT22;52231;40.090;18.348;2023-03-02T03:25:10;8.30;88.80
65582;DHT22;52231;40.090;18.348;2023-03-02T03:27:46;8.30;88.80
65582;DHT22;52231;40.090;18.348;2023-03-02T03:30:14;8.30;88.90
65582;DHT22;52231;40.090;18.348;2023-03-02T03:32:43;8.30;88.90
65582;DHT22;52231;40.090;18.348;2023-03-02T03:35:13;8.30;88.90
65582;DHT22;52231;40.090;18.348;2023-03-02T03:37:42;8.20;88.90
65582;DHT22;52231;40.090;18.348;2023-03-02T03:40:11;8.20;89.00
65582;DHT22;52231;40.090;18.348;2023-03-02T03:42:42;8.20;89.00
65582;DHT22;52231;40.090;18.348;2023-03-02T03:45:11;8.10;89.10
65582;DHT22;52231;40.090;18.348;2023-03-02T03:47:42;8.10;89.10
65582;DHT22;52231;40.090;18.348;2023-03-02T03:50:10;8.10;89.20
65582;DHT22;52231;40.090;18.348;2023-03-02T03:52:40;8.10;89.30
65582;DHT22;52231;40.090;18.348;2023-03-02T03:55:16;8.10;89.30
65582;DHT22;52231;40.090;18.348;2023-03-02T03:57:47;8.20;89.40
65582;DHT22;52231;40.090;18.348;2023-03-02T04:00:16;8.10;89.30
65582;DHT22;52231;40.090;18.348;2023-03-02T04:02:57;8.10;89.30
65582;DHT22;52231;40.090;18.348;2023-03-02T04:05:27;8.00;89.30
65582;DHT22;52231;40.090;18.348;2023-03-02T04:07:59;8.00;89.40
65582;DHT22;52231;40.090;18.348;2023-03-02T04:10:30;8.00;89.40
65582;DHT22;52231;40.090;18.348;2023-03-02T04:12:58;8.00;89.50
65582;DHT22;52231;40.090;18.348;2023-03-02T04:15:27;8.00;89.50
65582;DHT22;52231;40.090;18.348;2023-03-02T04:17:57;8.00;89.50
65582;DHT22;52231;40.090;18.348;2023-03-02T04:20:26;8.00;89.50
65582;DHT22;52231;40.090;18.348;2023-03-02T04:22:57;7.90;89.60
65582;DHT22;52231;40.090;18.348;2023-03-02T04:25:27;7.90;89.60
65582;DHT22;52231;40.090;18.348;2023-03-02T04:28:01;7.90;89.60
65582;DHT22;52231;40.090;18.348;2023-03-02T04:30:35;7.90;89.60
65582;DHT22;52231;40.090;18.348;2023-03-02T04:33:03;7.90;89.60
65582;DHT22;52231;40.090;18.348;2023-03-02T04:35:33;7.80;89.60
65582;DHT22;52231;40.090;18.348;2023-03-02T04:38:03;7.80;89.70
65582;DHT22;52231;40.090;18.348;2023-03-02T04:40:31;7.80;89.70
65582;DHT22;52231;40.090;18.348;2023-03-02T04:42:59;7.70;89.70
65582;DHT22;52231;40.090;18.348;2023-03-02T04:45:28;7.70;89.70
65582;DHT22;52231;40.090;18.348;2023-03-02T04:47:57;7.60;89.60
65582;DHT22;52231;40.090;18.348;2023-03-02T04:50:25;7.60;89.70
65582;DHT22;52231;40.090;18.348;2023-03-02T04:52:54;7.60;89.70
65582;DHT22;52231;40.090;18.348;2023-03-02T04:55:24;7.60;89.70
65582;DHT22;52231;40.090;18.348;2023-03-02T04:57:53;7.60;89.70
65582;DHT22;52231;40.090;18.348;2023-03-02T05:00:21;7.60;89.80
65582;DHT22;52231;40.090;18.348;2023-03-02T05:02:49;7.60;89.90
65582;DHT22;52231;40.090;18.348;2023-03-02T05:05:21;7.70;89.90
65582;DHT22;52231;40.090;18.348;2023-03-02T05:07:50;7.60;89.90
65582;DHT22;52231;40.090;18.348;2023-03-02T05:10:19;7.70;90.00
65582;DHT22;52231;40.090;18.348;2023-03-02T05:12:47;7.70;90.00
65582;DHT22;52231;40.090;18.348;2023-03-02T05:15:28;7.70;90.00
65582;DHT22;52231;40.090;18.348;2023-03-02T05:17:56;7.60;90.00
65582;DHT22;52231;40.090;18.348;2023-03-02T05:20:25;7.70;90.00
65582;DHT22;52231;40.090;18.348;2023-03-02T05:23:01;7.70;90.00
65582;DHT22;52231;40.090;18.348;2023-03-02T05:25:31;7.60;90.10
65582;DHT22;52231;40.090;18.348;2023-03-02T05:28:00;7.70;90.20
65582;DHT22;52231;40.090;18.348;2023-03-02T05:30:28;7.70;90.20
65582;DHT22;52231;40.090;18.348;2023-03-02T05:32:57;7.80;90.20
65582;DHT22;52231;40.090;18.348;2023-03-02T05:35:25;7.80;90.20
65582;DHT22;52231;40.090;18.348;2023-03-02T05:37:54;7.80;90.20
65582;DHT22;52231;40.090;18.348;2023-03-02T05:40:22;7.90;90.30
65582;DHT22;52231;40.090;18.348;2023-03-02T05:42:51;8.10;90.20
65582;DHT22;52231;40.090;18.348;2023-03-02T05:45:22;8.20;90.20
65582;DHT22;52231;40.090;18.348;2023-03-02T05:47:51;8.30;90.10
65582;DHT22;52231;40.090;18.348;2023-03-02T05:50:19;8.30;90.00
65582;DHT22;52231;40.090;18.348;2023-03-02T05:52:48;8.40;89.90
65582;DHT22;52231;40.090;18.348;2023-03-02T05:55:18;8.60;89.90
65582;DHT22;52231;40.090;18.348;2023-03-02T05:57:47;8.80;89.70
65582;DHT22;52231;40.090;18.348;2023-03-02T06:00:18;8.90;89.50
65582;DHT22;52231;40.090;18.348;2023-03-02T06:02:47;9.10;89.20
65582;DHT22;52231;40.090;18.348;2023-03-02T06:05:17;9.30;88.80
65582;DHT22;52231;40.090;18.348;2023-03-02T06:07:45;9.50;88.50
65582;DHT22;52231;40.090;18.348;2023-03-02T06:10:14;9.70;88.20
65582;DHT22;52231;40.090;18.348;2023-03-02T06:12:42;9.90;87.90
65582;DHT22;52231;40.090;18.348;2023-03-02T06:15:11;10.20;87.40
65582;DHT22;52231;40.090;18.348;2023-03-02T06:17:43;10.50;87.00
65582;DHT22;52231;40.090;18.348;2023-03-02T06:20:12;10.80;86.30
65582;DHT22;52231;40.090;18.348;2023-03-02T06:22:42;10.90;85.10
65582;DHT22;52231;40.090;18.348;2023-03-02T06:25:22;11.10;84.10
65582;DHT22;52231;40.090;18.348;2023-03-02T06:27:51;11.30;83.00
65582;DHT22;52231;40.090;18.348;2023-03-02T06:30:22;11.50;82.40
65582;DHT22;52231;40.090;18.348;2023-03-02T06:32:51;11.80;81.60
65582;DHT22;52231;40.090;18.348;2023-03-02T06:35:19;12.00;80.90
65582;DHT22;52231;40.090;18.348;2023-03-02T06:37:48;12.20;80.00
65582;DHT22;52231;40.090;18.348;2023-03-02T06:40:16;12.30;79.50
65582;DHT22;52231;40.090;18.348;2023-03-02T06:42:44;12.60;78.60
65582;DHT22;52231;40.090;18.348;2023-03-02T06:45:13;12.90;78.10
65582;DHT22;52231;40.090;18.348;2023-03-02T06:47:41;13.20;77.20
65582;DHT22;52231;40.090;18.348;2023-03-02T06:50:09;13.30;75.50
65582;DHT22;52231;40.090;18.348;2023-03-02T06:52:38;13.30;74.90
65582;DHT22;52231;40.090;18.348;2023-03-02T06:55:06;13.50;75.10
65582;DHT22;52231;40.090;18.348;2023-03-02T06:57:35;13.60;74.20
65582;DHT22;52231;40.090;18.348;2023-03-02T07:00:07;13.70;73.80
65582;DHT22;52231;40.090;18.348;2023-03-02T07:02:45;13.90;73.90
65582;DHT22;52231;40.090;18.348;2023-03-02T07:05:17;14.00;73.30
65582;DHT22;52231;40.090;18.348;2023-03-02T07:07:46;14.20;72.80
65582;DHT22;52231;40.090;18.348;2023-03-02T07:10:14;14.30;72.20
65582;DHT22;52231;40.090;18.348;2023-03-02T07:12:42;14.50;71.80
65582;DHT22;52231;40.090;18.348;2023-03-02T07:15:10;14.60;71.10
65582;DHT22;52231;40.090;18.348;2023-03-02T07:17:42;14.70;70.60
65582;DHT22;52231;40.090;18.348;2023-03-02T07:20:12;14.80;69.80
65582;DHT22;52231;40.090;18.348;2023-03-02T07:22:41;14.90;69.00
65582;DHT22;52231;40.090;18.348;2023-03-02T07:25:09;15.00;69.60
65582;DHT22;52231;40.090;18.348;2023-03-02T07:27:38;15.10;68.90
65582;DHT22;52231;40.090;18.348;2023-03-02T07:30:07;15.20;68.20
65582;DHT22;52231;40.090;18.348;2023-03-02T07:32:35;15.40;67.80
65582;DHT22;52231;40.090;18.348;2023-03-02T07:35:04;15.60;67.30
65582;DHT22;52231;40.090;18.348;2023-03-02T07:37:32;15.60;67.20
65582;DHT22;52231;40.090;18.348;2023-03-02T07:40:03;15.50;66.70
65582;DHT22;52231;40.090;18.348;2023-03-02T07:42:33;15.60;67.60
65582;DHT22;52231;40.090;18.348;2023-03-02T07:45:03;15.80;66.30
65582;DHT22;52231;40.090;18.348;2023-03-02T07:47:32;15.80;65.70
65582;DHT22;52231;40.090;18.348;2023-03-02T07:50:00;15.90;65.40
65582;DHT22;52231;40.090;18.348;2023-03-02T07:52:29;16.00;64.00
65582;DHT22;52231;40.090;18.348;2023-03-02T07:54:57;15.90;63.40
65582;DHT22;52231;40.090;18.348;2023-03-02T07:57:26;15.90;64.00
65582;DHT22;52231;40.090;18.348;2023-03-02T07:59:53;16.00;63.20
65582;DHT22;52231;40.090;18.348;2023-03-02T08:02:22;16.20;63.30
65582;DHT22;52231;40.090;18.348;2023-03-02T08:04:52;16.30;62.80
65582;DHT22;52231;40.090;18.348;2023-03-02T08:07:20;16.30;62.60
65582;DHT22;52231;40.090;18.348;2023-03-02T08:09:48;15.70;63.70
65582;DHT22;52231;40.090;18.348;2023-03-02T08:12:16;15.10;65.90
65582;DHT22;52231;40.090;18.348;2023-03-02T08:14:46;14.70;67.20
65582;DHT22;52231;40.090;18.348;2023-03-02T08:17:15;14.50;68.10
65582;DHT22;52231;40.090;18.348;2023-03-02T08:19:44;14.40;68.60
65582;DHT22;52231;40.090;18.348;2023-03-02T08:22:13;14.60;68.70
65582;DHT22;52231;40.090;18.348;2023-03-02T08:24:42;14.80;68.30
65582;DHT22;52231;40.090;18.348;2023-03-02T08:27:14;14.80;68.20
65582;DHT22;52231;40.090;18.348;2023-03-02T08:29:42;14.80;68.50
65582;DHT22;52231;40.090;18.348;2023-03-02T08:32:10;15.00;68.50
65582;DHT22;52231;40.090;18.348;2023-03-02T08:34:39;15.70;67.10
65582;DHT22;52231;40.090;18.348;2023-03-02T08:37:07;16.20;65.00
65582;DHT22;52231;40.090;18.348;2023-03-02T08:39:35;16.30;63.90
65582;DHT22;52231;40.090;18.348;2023-03-02T08:42:03;16.50;61.60
65582;DHT22;52231;40.090;18.348;2023-03-02T08:44:32;16.70;59.50
65582;DHT22;52231;40.090;18.348;2023-03-02T08:47:00;16.80;58.40
65582;DHT22;52231;40.090;18.348;2023-03-02T08:49:28;16.60;58.00
65582;DHT22;52231;40.090;18.348;2023-03-02T08:51:58;16.60;58.70
65582;DHT22;52231;40.090;18.348;2023-03-02T08:54:28;16.60;59.20
65582;DHT22;52231;40.090;18.348;2023-03-02T08:56:56;16.90;59.00
65582;DHT22;52231;40.090;18.348;2023-03-02T08:59:25;17.30;57.60
65582;DHT22;52231;40.090;18.348;2023-03-02T09:01:53;17.70;56.60
65582;DHT22;52231;40.090;18.348;2023-03-02T09:04:21;18.10;54.30
65582;DHT22;52231;40.090;18.348;2023-03-02T09:06:49;18.40;54.40
65582;DHT22;52231;40.090;18.348;2023-03-02T09:09:21;18.60;53.10
65582;DHT22;52231;40.090;18.348;2023-03-02T09:11:49;18.50;53.20
65582;DHT22;52231;40.090;18.348;2023-03-02T09:14:17;18.40;53.50
65582;DHT22;52231;40.090;18.348;2023-03-02T09:16:48;18.10;55.20
65582;DHT22;52231;40.090;18.348;2023-03-02T09:19:16;17.80;56.30
65582;DHT22;52231;40.090;18.348;2023-03-02T09:21:44;17.50;57.80
65582;DHT22;52231;40.090;18.348;2023-03-02T09:24:13;17.40;58.50
65582;DHT22;52231;40.090;18.348;2023-03-02T09:26:41;17.00;59.40
65582;DHT22;52231;40.090;18.348;2023-03-02T09:29:09;16.80;60.60
65582;DHT22;52231;40.090;18.348;2023-03-02T09:31:39;16.60;60.50
65582;DHT22;52231;40.090;18.348;2023-03-02T09:34:10;16.80;61.20
65582;DHT22;52231;40.090;18.348;2023-03-02T09:36:38;16.80;58.60
65582;DHT22;52231;40.090;18.348;2023-03-02T09:39:06;16.80;58.60
65582;DHT22;52231;40.090;18.348;2023-03-02T09:50:33;18.00;54.20
65582;DHT22;52231;40.090;18.348;2023-03-02T09:55:37;18.80;50.20
65582;DHT22;52231;40.090;18.348;2023-03-02T09:58:12;18.80;50.50
65582;DHT22;52231;40.090;18.348;2023-03-02T10:00:42;18.40;51.90
65582;DHT22;52231;40.090;18.348;2023-03-02T10:03:18;18.10;53.30
65582;DHT22;52231;40.090;18.348;2023-03-02T10:05:49;17.80;54.00
65582;DHT22;52231;40.090;18.348;2023-03-02T10:08:21;17.50;53.30
65582;DHT22;52231;40.090;18.348;2023-03-02T10:13:42;18.40;53.80
65582;DHT22;52231;40.090;18.348;2023-03-02T10:19:28;19.30;50.50
65582;DHT22;52231;40.090;18.348;2023-03-02T10:22:34;19.80;48.50
65582;DHT22;52231;40.090;18.348;2023-03-02T10:25:23;20.00;47.50
65582;DHT22;52231;40.090;18.348;2023-03-02T10:28:19;19.50;48.50
65582;DHT22;52231;40.090;18.348;2023-03-02T10:31:16;18.80;50.80
65582;DHT22;52231;40.090;18.348;2023-03-02T10:33:46;18.60;51.90
65582;DHT22;52231;40.090;18.348;2023-03-02T10:36:25;18.30;52.60
65582;DHT22;52231;40.090;18.348;2023-03-02T10:38:54;18.10;54.00
65582;DHT22;52231;40.090;18.348;2023-03-02T10:41:29;18.50;55.50
65582;DHT22;52231;40.090;18.348;2023-03-02T10:44:06;18.80;54.80
65582;DHT22;52231;40.090;18.348;2023-03-02T10:46:41;18.90;54.60
65582;DHT22;52231;40.090;18.348;2023-03-02T10:49:31;19.10;52.90
65582;DHT22;52231;40.090;18.348;2023-03-02T10:52:11;19.70;50.50
65582;DHT22;52231;40.090;18.348;2023-03-02T10:54:39;19.40;50.40
65582;DHT22;52231;40.090;18.348;2023-03-02T11:02:33;18.80;53.70
65582;DHT22;52231;40.090;18.348;2023-03-02T11:08:01;18.70;53.00
65582;DHT22;52231;40.090;18.348;2023-03-02T11:13:02;18.40;55.30
65582;DHT22;52231;40.090;18.348;2023-03-02T11:15:55;18.40;55.70
65582;DHT22;52231;40.090;18.348;2023-03-02T11:18:37;18.50;55.70
65582;DHT22;52231;40.090;18.348;2023-03-02T11:21:35;18.60;54.00
65582;DHT22;52231;40.090;18.348;2023-03-02T11:24:20;18.40;54.90
65582;DHT22;52231;40.090;18.348;2023-03-02T11:26:55;18.90;54.40
65582;DHT22;52231;40.090;18.348;2023-03-02T11:29:36;19.00;53.60
65582;DHT22;52231;40.090;18.348;2023-03-02T11:35:11;19.10;54.60
65582;DHT22;52231;40.090;18.348;2023-03-02T11:37:54;19.10;53.70
65582;DHT22;52231;40.090;18.348;2023-03-02T11:40:30;19.00;53.80
65582;DHT22;52231;40.090;18.348;2023-03-02T11:43:01;19.20;53.70
65582;DHT22;52231;40.090;18.348;2023-03-02T11:45:37;19.30;53.60
65582;DHT22;52231;40.090;18.348;2023-03-02T11:48:21;19.30;54.10
65582;DHT22;52231;40.090;18.348;2023-03-02T11:51:02;19.10;54.60
65582;DHT22;52231;40.090;18.348;2023-03-02T11:53:54;18.90;54.00
65582;DHT22;52231;40.090;18.348;2023-03-02T11:56:23;18.70;55.80
65582;DHT22;52231;40.090;18.348;2023-03-02T11:58:59;18.60;56.20
65582;DHT22;52231;40.090;18.348;2023-03-02T12:01:30;18.50;57.20
65582;DHT22;52231;40.090;18.348;2023-03-02T12:04:24;18.60;57.30
65582;DHT22;52231;40.090;18.348;2023-03-02T12:06:53;18.80;56.80
65582;DHT22;52231;40.090;18.348;2023-03-02T12:09:30;18.70;56.60
65582;DHT22;52231;40.090;18.348;2023-03-02T12:12:18;18.50;56.60
65582;DHT22;52231;40.090;18.348;2023-03-02T12:14:52;18.40;57.00
65582;DHT22;52231;40.090;18.348;2023-03-02T12:22:35;18.60;57.80
65582;DHT22;52231;40.090;18.348;2023-03-02T12:27:49;18.00;58.90
65582;DHT22;52231;40.090;18.348;2023-03-02T12:35:38;17.90;60.30
65582;DHT22;52231;40.090;18.348;2023-03-02T12:43:42;18.10;60.00
65582;DHT22;52231;40.090;18.348;2023-03-02T12:46:27;18.30;58.50
65582;DHT22;52231;40.090;18.348;2023-03-02T12:52:01;19.30;53.20
65582;DHT22;52231;40.090;18.348;2023-03-02T12:54:32;19.00;53.50
65582;DHT22;52231;40.090;18.348;2023-03-02T12:57:15;18.80;54.80
65582;DHT22;52231;40.090;18.348;2023-03-02T12:59:52;18.60;53.70
65582;DHT22;52231;40.090;18.348;2023-03-02T13:02:26;18.50;53.70
65582;DHT22;52231;40.090;18.348;2023-03-02T13:05:04;18.70;53.30
65582;DHT22;52231;40.090;18.348;2023-03-02T13:07:40;19.00;53.70
65582;DHT22;52231;40.090;18.348;2023-03-02T13:10:55;18.90;53.60
65582;DHT22;52231;40.090;18.348;2023-03-02T13:16:21;19.10;53.90
65582;DHT22;52231;40.090;18.348;2023-03-02T13:18:53;19.30;52.80
65582;DHT22;52231;40.090;18.348;2023-03-02T13:21:37;19.60;51.80
65582;DHT22;52231;40.090;18.348;2023-03-02T13:24:26;19.50;50.80
65582;DHT22;52231;40.090;18.348;2023-03-02T13:27:05;19.20;50.50
65582;DHT22;52231;40.090;18.348;2023-03-02T13:29:34;19.30;51.80
65582;DHT22;52231;40.090;18.348;2023-03-02T13:34:51;19.60;52.60
65582;DHT22;52231;40.090;18.348;2023-03-02T13:37:39;19.70;52.10
65582;DHT22;52231;40.090;18.348;2023-03-02T13:42:53;19.90;51.50
65582;DHT22;52231;40.090;18.348;2023-03-02T13:45:32;19.50;50.60
65582;DHT22;52231;40.090;18.348;2023-03-02T13:48:12;19.10;52.20
65582;DHT22;52231;40.090;18.348;2023-03-02T13:51:00;18.90;53.40
65582;DHT22;52231;40.090;18.348;2023-03-02T13:53:31;18.80;52.50
65582;DHT22;52231;40.090;18.348;2023-03-02T13:56:05;18.60;53.60
65582;DHT22;52231;40.090;18.348;2023-03-02T13:58:35;18.70;52.90
65582;DHT22;52231;40.090;18.348;2023-03-02T14:01:08;19.00;52.60
65582;DHT22;52231;40.090;18.348;2023-03-02T14:03:37;19.20;52.80
65582;DHT22;52231;40.090;18.348;2023-03-02T14:06:06;19.00;53.70
65582;DHT22;52231;40.090;18.348;2023-03-02T14:08:35;19.10;53.50
65582;DHT22;52231;40.090;18.348;2023-03-02T14:11:03;18.90;51.80
65582;DHT22;52231;40.090;18.348;2023-03-02T14:13:55;18.80;50.80
65582;DHT22;52231;40.090;18.348;2023-03-02T14:16:24;18.70;52.30
65582;DHT22;52231;40.090;18.348;2023-03-02T14:18:53;18.60;52.00
65582;DHT22;52231;40.090;18.348;2023-03-02T14:21:26;18.30;51.80
65582;DHT22;52231;40.090;18.348;2023-03-02T14:23:56;18.20;52.90
65582;DHT22;52231;40.090;18.348;2023-03-02T14:26:38;18.10;54.20
65582;DHT22;52231;40.090;18.348;2023-03-02T14:29:24;18.00;53.70
65582;DHT22;52231;40.090;18.348;2023-03-02T14:31:55;17.70;55.50
65582;DHT22;52231;40.090;18.348;2023-03-02T14:34:24;17.40;56.40
65582;DHT22;52231;40.090;18.348;2023-03-02T14:36:58;17.30;56.90
65582;DHT22;52231;40.090;18.348;2023-03-02T14:39:48;17.30;57.00
65582;DHT22;52231;40.090;18.348;2023-03-02T14:42:22;17.30;57.50
65582;DHT22;52231;40.090;18.348;2023-03-02T14:44:51;17.30;57.50
65582;DHT22;52231;40.090;18.348;2023-03-02T14:47:20;17.70;56.60
65582;DHT22;52231;40.090;18.348;2023-03-02T14:49:49;17.60;56.50
65582;DHT22;52231;40.090;18.348;2023-03-02T14:52:27;17.50;57.00
65582;DHT22;52231;40.090;18.348;2023-03-02T14:55:23;17.40;57.40
65582;DHT22;52231;40.090;18.348;2023-03-02T14:58:00;17.40;57.90
65582;DHT22;52231;40.090;18.348;2023-03-02T15:00:30;17.20;58.70
65582;DHT22;52231;40.090;18.348;2023-03-02T15:02:58;17.40;59.30
65582;DHT22;52231;40.090;18.348;2023-03-02T15:05:27;17.30;59.30
65582;DHT22;52231;40.090;18.348;2023-03-02T15:08:01;17.30;59.30
65582;DHT22;52231;40.090;18.348;2023-03-02T15:10:31;17.30;59.50
65582;DHT22;52231;40.090;18.348;2023-03-02T15:13:11;17.40;59.10
65582;DHT22;52231;40.090;18.348;2023-03-02T15:15:42;17.60;58.40
65582;DHT22;52231;40.090;18.348;2023-03-02T15:18:12;17.60;57.40
65582;DHT22;52231;40.090;18.348;2023-03-02T15:20:43;17.60;57.50
65582;DHT22;52231;40.090;18.348;2023-03-02T15:23:12;17.30;54.80
65582;DHT22;52231;40.090;18.348;2023-03-02T15:25:40;17.00;56.40
65582;DHT22;52231;40.090;18.348;2023-03-02T15:28:18;16.70;58.90
65582;DHT22;52231;40.090;18.348;2023-03-02T15:30:48;16.60;59.60
65582;DHT22;52231;40.090;18.348;2023-03-02T15:33:16;16.40;60.20
65582;DHT22;52231;40.090;18.348;2023-03-02T15:35:50;16.40;60.30
65582;DHT22;52231;40.090;18.348;2023-03-02T15:38:22;16.30;58.60
65582;DHT22;52231;40.090;18.348;2023-03-02T15:41:12;16.10;58.50
65582;DHT22;52231;40.090;18.348;2023-03-02T15:43:40;15.90;58.70
65582;DHT22;52231;40.090;18.348;2023-03-02T15:46:09;15.80;59.10
65582;DHT22;52231;40.090;18.348;2023-03-02T15:48:38;15.60;59.50
65582;DHT22;52231;40.090;18.348;2023-03-02T15:51:07;15.50;60.00
65582;DHT22;52231;40.090;18.348;2023-03-02T15:53:37;15.30;60.80
65582;DHT22;52231;40.090;18.348;2023-03-02T15:56:11;15.30;61.90
65582;DHT22;52231;40.090;18.348;2023-03-02T15:58:49;15.10;62.10
65582;DHT22;52231;40.090;18.348;2023-03-02T16:01:17;15.00;63.20
65582;DHT22;52231;40.090;18.348;2023-03-02T16:03:46;14.80;64.40
65582;DHT22;52231;40.090;18.348;2023-03-02T16:06:14;14.70;65.10
65582;DHT22;52231;40.090;18.348;2023-03-02T16:08:45;14.60;65.10
65582;DHT22;52231;40.090;18.348;2023-03-02T16:11:13;14.50;63.80
65582;DHT22;52231;40.090;18.348;2023-03-02T16:13:45;14.40;63.70
65582;DHT22;52231;40.090;18.348;2023-03-02T16:16:13;14.30;63.80
65582;DHT22;52231;40.090;18.348;2023-03-02T16:18:42;14.30;64.00
65582;DHT22;52231;40.090;18.348;2023-03-02T16:21:11;14.20;64.40
65582;DHT22;52231;40.090;18.348;2023-03-02T16:23:40;14.10;64.10
65582;DHT22;52231;40.090;18.348;2023-03-02T16:26:14;14.00;64.40
65582;DHT22;52231;40.090;18.348;2023-03-02T16:28:44;13.90;65.20
65582;DHT22;52231;40.090;18.348;2023-03-02T16:31:15;13.80;65.60
65582;DHT22;52231;40.090;18.348;2023-03-02T16:33:45;13.80;66.40
65582;DHT22;52231;40.090;18.348;2023-03-02T16:36:14;13.60;67.00
65582;DHT22;52231;40.090;18.348;2023-03-02T16:38:42;13.50;67.70
65582;DHT22;52231;40.090;18.348;2023-03-02T16:41:13;13.40;68.20
65582;DHT22;52231;40.090;18.348;2023-03-02T16:43:53;13.30;68.70
65582;DHT22;52231;40.090;18.348;2023-03-02T16:46:23;13.30;69.40
65582;DHT22;52231;40.090;18.348;2023-03-02T16:48:53;13.10;69.90
65582;DHT22;52231;40.090;18.348;2023-03-02T16:51:28;13.00;70.40
65582;DHT22;52231;40.090;18.348;2023-03-02T16:53:57;13.00;70.90
65582;DHT22;52231;40.090;18.348;2023-03-02T16:56:25;12.90;71.30
65582;DHT22;52231;40.090;18.348;2023-03-02T16:58:53;12.80;71.40
65582;DHT22;52231;40.090;18.348;2023-03-02T17:01:22;12.80;71.60
65582;DHT22;52231;40.090;18.348;2023-03-02T17:03:51;12.70;71.80